Juan de Fuca Strait - east entrance: Past 24 Hour Conditions

 

Halibut Bank - 46146

01:00 AM PST 29 November 2014Buoy position: 49.34N 123.72W
This table is a summary of hourly weather conditions for the past 24 hours.
Date / Time
(PST)
Wind(knots) Wave height(m) Wave period(s) Pressure(kPa) Air tempC) Water tempC)
29 November 2014
1:00 NNW 8 gust 10 0.7 4.0 100.2 2 9
0:00 NNW 12 gust 16 0.9 4.0 100.1 2 10
28 November 2014
23:00 NW 18 gust 23 0.8 4.0 100.0 2 9
22:00 WNW 18 gust 21 1.0 4.0 99.9 2 9
21:00 WNW 21 gust 23 1.0 4.0 99.8 3 9
20:00 WNW 19 gust 23 1.1 4.0 99.7 3 9
19:00 WNW 21 gust 27 1.0 4.0 99.7 4 9
18:00 WNW 21 gust 27 1.0 4.0 99.7 4 9
17:00 WNW 21 gust 23 1.0 5.0 99.7 5 9
16:00 WNW 19 gust 23 1.0 4.0 99.7 6 9
15:00 WNW 18 gust 19 1.0 4.0 99.7 6 9
14:00 NW 18 gust 21 1.1 5.0 99.8 6 9
13:00 NW 19 gust 23 1.1 4.0 99.8 7 9
12:00 WNW 21 gust 27 1.0 4.0 99.8 7 9
11:00 NW 18 gust 19 0.7 4.0 99.9 7 9
10:00 NW 18 gust 21 0.7 4.0 100.0 6 9
9:00 NW 19 gust 23 1.0 5.0 100.0 7 9
8:00 WNW 19 gust 23 1.1 5.0 100.0 7 9
7:00 WNW 23 gust 27 1.0 5.0 99.9 7 9
6:00 WNW 21 gust 27 1.0 4.0 100.0 8 9
5:00 WNW 23 gust 27 1.1 4.0 100.0 8 10
4:00 W 21 gust 27 1.1 5.0 100.0 8 9
3:00 WNW 19 gust 25 1.2 5.0 100.0 8 10
2:00 WNW 25 gust 29 1.1 4.0 100.0 8 10
1:00 WNW 23 gust 29 0.5 3.0 99.9 8 10
 
Map of Pacific - Georgia Basin marine weather areas Tsawwassen Ferry Terminal Sentry Shoal - 46131 Halibut Bank - 46146 La Perouse Bank - 46206 Discovery Island Esquimalt Harbour Kelp Reefs Malahat Race Rocks Lightstation Saturna Island Sheringham Point University of Victoria Victoria Gonzales Victoria Int'l Airport Ballenas Islands Campbell River Airport Comox Airport Entrance Island Fanny Island Nanaimo Airport Sisters Islets Estevan Point Tofino Airport Grief Point Powell River Airport Sechelt Point Atkinson Sand Heads Lightstation Vancouver Harbour Vancouver Int'l Airport West Vancouver Port Alberni Howe Sound - Pam Rocks Squamish Airport